Lily, Wisconsin
Current Conditions -  °F | °C
As of 8:35 PM on Sunday 23 Nov 2014 (Local Time) from KAIG Reporting Station
Moderate Fog Moderate Fog  
Wind Chill: 34°   Ceiling: 300
Heat Index: 38°   Visibility: 0.25mi
Dew Point: 38°   Wind: 6mph
Humidity: 100%   Direction: 110°ESE
Pressure: 29.28"   Gusts: NA
Location:  45.261°N, 88.731°W
Report Text: KAIG 240235Z AUTO 11005KT 1/4SM FG OVC003 04/04 A2928 RMK AO2 T00350035
Loading
Personal Weather Stations






























Interactive Weather Map New forecast layout! Learn more

10-Day Weather Forecast

Advertisements
Track Severe Weather on mobile